Ada, West Virginia
Current Conditions -  °F | °C
As of 4:52 AM on Saturday 20 Dec 2014 (Local Time) from KBLF Reporting Station
Broken Clouds Broken Clouds  
Wind Chill: 19°   Ceiling: 9500
Heat Index: 26°   Visibility: 10mi
Dew Point: 21°   Wind: 6mph
Humidity: 81%   Direction: 120°ESE
Pressure: 30.13"   Gusts: NA
Location:  37.2994°N, 81.226°W
Report Text: KBLF 200952Z AUTO 12005KT 10SM BKN095 BKN110 M03/M06 A3013 RMK AO2 SLP222 T10331061
Loading
Personal Weather Stations






























Interactive Weather Map New forecast layout! Learn more

10-Day Weather Forecast

Advertisements
Track Severe Weather on mobile